createdAt,value
2016-02-12T00:00:52.443Z,0
2016-02-12T00:01:52.414Z,0
2016-02-12T00:02:52.401Z,0
2016-02-12T00:03:52.357Z,0
2016-02-12T00:04:52.345Z,0
2016-02-12T00:05:52.301Z,0
2016-02-12T00:06:52.287Z,0
2016-02-12T00:07:52.228Z,0
2016-02-12T00:08:52.216Z,0
2016-02-12T00:09:52.218Z,0
2016-02-12T00:10:52.150Z,0
2016-02-12T00:11:52.155Z,0
2016-02-12T00:12:52.096Z,0
2016-02-12T00:13:52.082Z,0
2016-02-12T00:14:52.039Z,0
2016-02-12T00:15:52.009Z,0
2016-02-12T00:16:51.998Z,0
2016-02-12T00:17:51.968Z,0
2016-02-12T00:18:51.925Z,0
2016-02-12T00:19:51.913Z,0
2016-02-12T00:20:51.884Z,0
2016-02-12T00:21:51.855Z,0
2016-02-12T00:22:51.811Z,0
2016-02-12T00:23:51.772Z,0
2016-02-12T00:24:51.732Z,0
2016-02-12T00:25:51.691Z,0
2016-02-12T00:26:51.651Z,0
2016-02-12T00:27:51.610Z,0
2016-02-12T00:28:51.572Z,0
2016-02-12T00:29:51.556Z,0
2016-02-12T00:30:51.507Z,0
2016-02-12T00:31:51.490Z,0
2016-02-12T00:32:51.441Z,0
2016-02-12T00:33:51.411Z,0
2016-02-12T00:34:51.397Z,0
2016-02-12T00:35:51.351Z,0
2016-02-12T00:36:51.325Z,0
2016-02-12T00:37:51.310Z,0
2016-02-12T00:38:51.250Z,0
2016-02-12T00:39:51.251Z,0
2016-02-12T00:40:51.191Z,0
2016-02-12T00:41:51.161Z,0
2016-02-12T00:42:51.146Z,0
2016-02-12T00:43:51.116Z,0
2016-02-12T00:44:51.088Z,0
2016-02-12T00:45:51.044Z,0
2016-02-12T00:46:51.046Z,0
2016-02-12T00:47:51.001Z,0
2016-02-12T00:48:50.957Z,0
2016-02-12T00:49:50.945Z,0
2016-02-12T00:50:50.901Z,0
2016-02-12T00:51:50.903Z,0
2016-02-12T00:52:50.843Z,0
2016-02-12T00:53:50.815Z,0
2016-02-12T00:54:50.803Z,0
2016-02-12T00:55:50.759Z,0
2016-02-12T00:56:50.762Z,0
2016-02-12T00:57:50.701Z,0
2016-02-12T00:58:50.705Z,0
2016-02-12T00:59:50.645Z,0
2016-02-12T01:00:50.632Z,0
2016-02-12T01:01:50.588Z,0
2016-02-12T01:02:50.583Z,0
2016-02-12T01:03:50.540Z,0
2016-02-12T01:04:50.526Z,0
2016-02-12T01:05:50.466Z,0
2016-02-12T01:06:50.438Z,0
2016-02-12T01:07:50.425Z,0
2016-02-12T01:08:50.396Z,0
2016-02-12T01:09:50.368Z,0
2016-02-12T01:10:50.324Z,0
2016-02-12T01:11:50.313Z,0
2016-02-12T01:12:50.351Z,0
2016-02-12T01:13:50.275Z,0
2016-02-12T01:14:50.232Z,0
2016-02-12T01:15:50.202Z,0
2016-02-12T01:16:50.158Z,0
2016-02-12T01:17:50.160Z,0
2016-02-12T01:18:50.117Z,0
2016-02-12T01:19:50.074Z,0
2016-02-12T01:20:50.060Z,0
2016-02-12T01:21:50.047Z,0
2016-02-12T01:22:50.004Z,0
2016-02-12T01:23:49.960Z,0
2016-02-12T01:24:49.946Z,0
2016-02-12T01:25:49.902Z,0
2016-02-12T01:26:49.904Z,0
2016-02-12T01:27:49.860Z,0
2016-02-12T01:28:49.832Z,0
2016-02-12T01:29:49.801Z,0
2016-02-12T01:30:49.773Z,0
2016-02-12T01:31:49.760Z,0
2016-02-12T01:32:49.716Z,0
2016-02-12T01:33:49.719Z,0
2016-02-12T01:34:49.674Z,0
2016-02-12T01:35:49.663Z,0
2016-02-12T01:36:49.603Z,0
2016-02-12T01:37:49.433Z,0
2016-02-12T01:38:49.561Z,0
2016-02-12T01:39:49.551Z,0
2016-02-12T01:40:49.508Z,0
2016-02-12T01:41:49.369Z,0
2016-02-12T01:42:49.450Z,0
2016-02-12T01:43:49.425Z,0
2016-02-12T01:44:49.396Z,0
2016-02-12T01:45:49.367Z,0
2016-02-12T01:46:49.339Z,0
2016-02-12T01:47:49.311Z,0
2016-02-12T01:48:49.283Z,0
2016-02-12T01:49:49.254Z,0
2016-02-12T01:50:49.225Z,0
2016-02-12T01:51:49.041Z,0
2016-02-12T01:52:49.169Z,0
2016-02-12T01:53:49.155Z,0
2016-02-12T01:54:49.142Z,0
2016-02-12T01:55:49.083Z,0
2016-02-12T01:56:49.054Z,0
2016-02-12T01:57:49.026Z,0
2016-02-12T01:58:49.014Z,0
2016-02-12T01:59:49.000Z,0
2016-02-12T02:00:48.941Z,0
2016-02-12T02:01:48.944Z,0
2016-02-12T02:02:48.899Z,0
2016-02-12T02:03:48.855Z,0
2016-02-12T02:04:48.685Z,0
2016-02-12T02:05:48.798Z,0
2016-02-12T02:06:48.786Z,0
2016-02-12T02:07:48.742Z,0
2016-02-12T02:08:48.745Z,0
2016-02-12T02:09:48.715Z,0
2016-02-12T02:10:48.672Z,0
2016-02-12T02:11:48.659Z,0
2016-02-12T02:12:48.614Z,0
2016-02-12T02:13:48.587Z,0
2016-02-12T02:14:48.560Z,0
2016-02-12T02:15:48.547Z,0
2016-02-12T02:16:48.502Z,0
2016-02-12T02:17:48.489Z,0
2016-02-12T02:18:48.445Z,0
2016-02-12T02:19:48.432Z,0
2016-02-12T02:20:48.388Z,0
2016-02-12T02:21:48.375Z,0
2016-02-12T02:22:48.331Z,0
2016-02-12T02:23:48.302Z,0
2016-02-12T02:24:48.290Z,0
2016-02-12T02:25:48.276Z,0
2016-02-12T02:26:48.217Z,0
2016-02-12T02:27:48.188Z,0
2016-02-12T02:28:48.175Z,0
2016-02-12T02:29:48.131Z,0
2016-02-12T02:30:48.103Z,0
2016-02-12T02:31:48.090Z,0
2016-02-12T02:32:48.045Z,0
2016-02-12T02:33:48.032Z,0
2016-02-12T02:34:47.989Z,0
2016-02-12T02:35:47.975Z,0
2016-02-12T02:36:47.947Z,0
2016-02-12T02:37:47.934Z,0
2016-02-12T02:38:47.889Z,0
2016-02-12T02:39:47.878Z,0
2016-02-12T02:40:47.834Z,0
2016-02-12T02:41:47.648Z,0
2016-02-12T02:42:47.764Z,0
2016-02-12T02:43:47.752Z,0
2016-02-12T02:44:47.723Z,0
2016-02-12T02:45:47.710Z,0
2016-02-12T02:46:47.682Z,0
2016-02-12T02:47:47.481Z,0
2016-02-12T02:48:47.611Z,0
2016-02-12T02:49:47.567Z,0
2016-02-12T02:50:47.554Z,0
2016-02-12T02:51:47.541Z,0
2016-02-12T02:52:47.513Z,0
2016-02-12T02:53:47.469Z,0
2016-02-12T02:54:47.440Z,0
2016-02-12T02:55:47.413Z,0
2016-02-12T02:56:47.383Z,0
2016-02-12T02:57:47.354Z,0
2016-02-12T02:58:47.326Z,0
2016-02-12T02:59:47.315Z,0
2016-02-12T03:00:47.270Z,0
2016-02-12T03:01:47.242Z,0
2016-02-12T03:02:47.214Z,0
2016-02-12T03:03:47.185Z,0
2016-02-12T03:04:47.156Z,0
2016-02-12T03:05:47.144Z,0
2016-02-12T03:06:47.100Z,0
2016-02-12T03:07:47.071Z,0
2016-02-12T03:08:47.044Z,0
2016-02-12T03:09:47.001Z,0
2016-02-12T03:10:46.987Z,0
2016-02-12T03:11:46.964Z,0
2016-02-12T03:12:46.795Z,0
2016-02-12T03:13:46.969Z,0
2016-02-12T03:14:46.879Z,0
2016-02-12T03:15:46.851Z,0
2016-02-12T03:16:46.821Z,0
2016-02-12T03:17:46.794Z,0
2016-02-12T03:18:46.766Z,0
2016-02-12T03:19:46.753Z,0
2016-02-12T03:20:46.724Z,0
2016-02-12T03:21:46.680Z,0
2016-02-12T03:22:46.652Z,0
2016-02-12T03:23:46.622Z,0
2016-02-12T03:24:46.594Z,0
2016-02-12T03:25:46.550Z,0
2016-02-12T03:26:46.537Z,0
2016-02-12T03:27:46.541Z,0
2016-02-12T03:28:46.496Z,0
2016-02-12T03:29:46.451Z,0
2016-02-12T03:30:46.423Z,0
2016-02-12T03:31:46.394Z,0
2016-02-12T03:32:46.365Z,0
2016-02-12T03:33:46.353Z,0
2016-02-12T03:34:46.310Z,0
2016-02-12T03:35:46.281Z,0
2016-02-12T03:36:46.252Z,0
2016-02-12T03:37:46.225Z,0
2016-02-12T03:38:46.212Z,0
2016-02-12T03:39:46.167Z,0
2016-02-12T03:40:46.139Z,0
2016-02-12T03:41:46.127Z,0
2016-02-12T03:42:46.097Z,0
2016-02-12T03:43:46.074Z,0
2016-02-12T03:44:46.029Z,0
2016-02-12T03:45:46.001Z,0
2016-02-12T03:46:45.987Z,0
2016-02-12T03:47:45.959Z,0
2016-02-12T03:48:45.930Z,0
2016-02-12T03:49:45.886Z,0
2016-02-12T03:50:45.872Z,0
2016-02-12T03:51:45.845Z,0
2016-02-12T03:52:45.800Z,0
2016-02-12T03:53:45.772Z,0
2016-02-12T03:54:45.759Z,0
2016-02-12T03:55:45.715Z,0
2016-02-12T03:56:45.687Z,0
2016-02-12T03:57:45.658Z,0
2016-02-12T03:58:45.630Z,0
2016-02-12T03:59:45.617Z,0
2016-02-12T04:00:45.619Z,0
2016-02-12T04:01:45.559Z,0
2016-02-12T04:02:45.516Z,0
2016-02-12T04:03:45.487Z,0
2016-02-12T04:04:45.475Z,0
2016-02-12T04:05:45.430Z,0
2016-02-12T04:06:45.417Z,0
2016-02-12T04:07:45.405Z,0
2016-02-12T04:08:45.375Z,0
2016-02-12T04:09:45.175Z,0
2016-02-12T04:10:45.288Z,0
2016-02-12T04:11:45.277Z,0
2016-02-12T04:12:45.236Z,0
2016-02-12T04:13:45.223Z,0
2016-02-12T04:14:45.211Z,0
2016-02-12T04:15:45.167Z,0
2016-02-12T04:16:45.153Z,0
2016-02-12T04:17:45.110Z,0
2016-02-12T04:18:45.081Z,0
2016-02-12T04:19:45.053Z,0
2016-02-12T04:20:45.011Z,0
2016-02-12T04:21:44.997Z,0
2016-02-12T04:22:44.985Z,0
2016-02-12T04:23:44.956Z,0
2016-02-12T04:24:44.911Z,0
2016-02-12T04:25:44.883Z,0
2016-02-12T04:26:44.855Z,0
2016-02-12T04:27:44.826Z,0
2016-02-12T04:28:44.799Z,0
2016-02-12T04:29:44.770Z,0
2016-02-12T04:30:44.759Z,0
2016-02-12T04:31:44.745Z,0
2016-02-12T04:32:44.700Z,0
2016-02-12T04:33:44.657Z,0
2016-02-12T04:34:44.628Z,0
2016-02-12T04:35:44.600Z,0
2016-02-12T04:36:44.587Z,0
2016-02-12T04:37:44.559Z,0
2016-02-12T04:38:44.531Z,0
2016-02-12T04:39:44.502Z,0
2016-02-12T04:40:44.460Z,0
2016-02-12T04:41:44.431Z,0
2016-02-12T04:42:44.404Z,0
2016-02-12T04:43:44.375Z,0
2016-02-12T04:44:44.362Z,0
2016-02-12T04:45:44.334Z,0
2016-02-12T04:46:44.291Z,0
2016-02-12T04:47:44.277Z,0
2016-02-12T04:48:44.234Z,0
2016-02-12T04:49:44.221Z,0
2016-02-12T04:50:44.192Z,0
2016-02-12T04:51:44.164Z,0
2016-02-12T04:52:44.152Z,0
2016-02-12T04:53:44.107Z,0
2016-02-12T04:54:44.094Z,0
2016-02-12T04:55:44.049Z,0
2016-02-12T04:56:44.022Z,0
2016-02-12T04:57:43.993Z,0
2016-02-12T04:58:43.963Z,0
2016-02-12T04:59:43.951Z,0
2016-02-12T05:00:43.923Z,0
2016-02-12T05:01:43.894Z,0
2016-02-12T05:02:43.866Z,0
2016-02-12T05:03:43.821Z,0
2016-02-12T05:04:43.793Z,0
2016-02-12T05:05:43.765Z,0
2016-02-12T05:06:43.737Z,0
2016-02-12T05:07:43.724Z,0
2016-02-12T05:08:43.695Z,0
2016-02-12T05:09:43.682Z,0
2016-02-12T05:10:42.904Z,0
2016-02-12T05:11:43.442Z,0
2016-02-12T05:12:43.571Z,0
2016-02-12T05:13:43.557Z,0
2016-02-12T05:14:43.513Z,0
2016-02-12T05:15:43.515Z,0
2016-02-12T05:16:43.487Z,0
2016-02-12T05:17:43.443Z,0
2016-02-12T05:18:43.415Z,0
2016-02-12T05:19:43.371Z,0
2016-02-12T05:20:43.358Z,0
2016-02-12T05:21:43.329Z,0
2016-02-12T05:22:43.302Z,0
2016-02-12T05:23:43.274Z,0
2016-02-12T05:24:43.261Z,0
2016-02-12T05:25:43.248Z,0
2016-02-12T05:26:43.188Z,0
2016-02-12T05:27:43.159Z,0
2016-02-12T05:28:43.131Z,0
2016-02-12T05:29:43.274Z,0
2016-02-12T05:30:43.261Z,0
2016-02-12T05:31:43.060Z,0
2016-02-12T05:32:43.048Z,0
2016-02-12T05:33:42.988Z,0
2016-02-12T05:34:42.960Z,0
2016-02-12T05:35:42.947Z,0
2016-02-12T05:36:42.918Z,0
2016-02-12T05:37:42.889Z,0
2016-02-12T05:38:42.846Z,0
2016-02-12T05:39:42.848Z,0
2016-02-12T05:40:42.794Z,0
2016-02-12T05:41:42.766Z,0
2016-02-12T05:42:42.737Z,0
2016-02-12T05:43:42.726Z,0
2016-02-12T05:44:42.697Z,0
2016-02-12T05:45:42.653Z,0
2016-02-12T05:46:42.640Z,0
2016-02-12T05:47:42.595Z,0
2016-02-12T05:48:42.584Z,0
2016-02-12T05:49:42.556Z,0
2016-02-12T05:50:42.526Z,0
2016-02-12T05:51:42.515Z,0
2016-02-12T05:52:42.470Z,0
2016-02-12T05:53:42.426Z,0
2016-02-12T05:54:42.412Z,0
2016-02-12T05:55:42.415Z,0
2016-02-12T05:56:42.356Z,0
2016-02-12T05:57:42.345Z,0
2016-02-12T05:58:42.301Z,0
2016-02-12T05:59:42.289Z,0
2016-02-12T06:00:42.247Z,0
2016-02-12T06:01:42.218Z,0
2016-02-12T06:02:42.190Z,0
2016-02-12T06:03:42.161Z,0
2016-02-12T06:04:42.133Z,0
2016-02-12T06:05:42.104Z,0
2016-02-12T06:06:42.092Z,0
2016-02-12T06:07:42.047Z,0
2016-02-12T06:08:42.034Z,0
2016-02-12T06:09:42.022Z,0
2016-02-12T06:10:41.965Z,0
2016-02-12T06:11:41.937Z,0
2016-02-12T06:12:41.909Z,0
2016-02-12T06:13:41.879Z,0
2016-02-12T06:14:41.851Z,0
2016-02-12T06:15:41.838Z,0
2016-02-12T06:16:41.809Z,0
2016-02-12T06:17:41.766Z,0
2016-02-12T06:18:41.754Z,0
2016-02-12T06:19:41.724Z,0
2016-02-12T06:20:41.696Z,0
2016-02-12T06:21:41.683Z,0
2016-02-12T06:22:41.640Z,0
2016-02-12T06:23:41.610Z,0
2016-02-12T06:24:41.582Z,0
2016-02-12T06:25:41.554Z,0
2016-02-12T06:26:41.541Z,0
2016-02-12T06:27:41.513Z,0
2016-02-12T06:28:41.485Z,0
2016-02-12T06:29:41.440Z,0
2016-02-12T06:30:41.412Z,0
2016-02-12T06:31:41.383Z,0
2016-02-12T06:32:41.355Z,0
2016-02-12T06:33:41.341Z,0
2016-02-12T06:34:41.315Z,0
2016-02-12T06:35:41.287Z,0
2016-02-12T06:36:41.243Z,0
2016-02-12T06:37:41.214Z,0
2016-02-12T06:38:41.201Z,0
2016-02-12T06:39:41.173Z,0
2016-02-12T06:40:41.129Z,0
2016-02-12T06:41:41.132Z,0
2016-02-12T06:42:41.087Z,0
2016-02-12T06:43:41.062Z,0
2016-02-12T06:44:41.033Z,0
2016-02-12T06:45:40.990Z,0
2016-02-12T06:46:40.960Z,5
2016-02-12T06:47:40.948Z,5
2016-02-12T06:48:40.920Z,5
2016-02-12T06:49:40.890Z,5
2016-02-12T06:50:40.878Z,5
2016-02-12T06:51:40.818Z,10
2016-02-12T06:52:40.807Z,10
2016-02-12T06:53:40.777Z,10
2016-02-12T06:54:40.733Z,10
2016-02-12T06:55:40.736Z,15
2016-02-12T06:56:40.693Z,15
2016-02-12T06:57:40.664Z,15
2016-02-12T06:58:40.635Z,20
2016-02-12T06:59:40.607Z,20
2016-02-12T07:00:40.594Z,20
2016-02-12T07:01:40.567Z,20
2016-02-12T07:02:40.522Z,20
2016-02-12T07:03:40.525Z,20
2016-02-12T07:04:40.637Z,20
2016-02-12T07:05:40.437Z,25
2016-02-12T07:06:40.409Z,25
2016-02-12T07:07:40.412Z,25
2016-02-12T07:08:40.352Z,25
2016-02-12T07:09:40.215Z,30
2016-02-12T07:10:40.311Z,35
2016-02-12T07:11:40.286Z,35
2016-02-12T07:12:40.242Z,40
2016-02-12T07:13:40.213Z,45
2016-02-12T07:14:40.186Z,50
2016-02-12T07:15:40.157Z,50
2016-02-12T07:16:40.127Z,55
2016-02-12T07:17:40.131Z,60
2016-02-12T07:18:40.087Z,60
2016-02-12T07:19:40.058Z,55
2016-02-12T07:20:40.013Z,55
2016-02-12T07:21:40.001Z,55
2016-02-12T07:22:39.973Z,55
2016-02-12T07:23:39.943Z,60
2016-02-12T07:24:39.931Z,60
2016-02-12T07:25:39.887Z,60
2016-02-12T07:26:39.873Z,65
2016-02-12T07:27:39.846Z,65
2016-02-12T07:28:39.801Z,65
2016-02-12T07:29:39.773Z,70
2016-02-12T07:30:39.744Z,70
2016-02-12T07:31:39.715Z,75
2016-02-12T07:32:39.687Z,75
2016-02-12T07:33:39.673Z,75
2016-02-12T07:34:39.646Z,75
2016-02-12T07:35:39.601Z,80
2016-02-12T07:36:39.572Z,80
2016-02-12T07:37:39.560Z,80
2016-02-12T07:38:39.532Z,85
2016-02-12T07:39:39.534Z,95
2016-02-12T07:40:39.491Z,100
2016-02-12T07:41:39.432Z,110
2016-02-12T07:42:39.418Z,120
2016-02-12T07:43:39.374Z,125
2016-02-12T07:44:39.346Z,135
2016-02-12T07:45:39.333Z,145
2016-02-12T07:46:39.305Z,145
2016-02-12T07:47:39.292Z,145
2016-02-12T07:48:39.264Z,150
2016-02-12T07:49:39.219Z,155
2016-02-12T07:50:39.255Z,155
2016-02-12T07:51:39.163Z,160
2016-02-12T07:52:39.149Z,160
2016-02-12T07:53:39.137Z,160
2016-02-12T07:54:39.108Z,160
2016-02-12T07:55:39.065Z,155
2016-02-12T07:56:39.036Z,155
2016-02-12T07:57:39.008Z,155
2016-02-12T07:58:38.980Z,155
2016-02-12T07:59:38.950Z,165
2016-02-12T08:00:38.953Z,170
2016-02-12T08:01:38.925Z,175
2016-02-12T08:02:38.865Z,175
2016-02-12T08:03:38.854Z,170
2016-02-12T08:04:38.810Z,165
2016-02-12T08:05:38.797Z,160
2016-02-12T08:06:38.768Z,155
2016-02-12T08:07:38.756Z,155
2016-02-12T08:08:38.727Z,150
2016-02-12T08:09:38.698Z,150
2016-02-12T08:10:38.654Z,150
2016-02-12T08:11:38.626Z,155
2016-02-12T08:12:38.598Z,165
2016-02-12T08:13:38.572Z,170
2016-02-12T08:14:38.544Z,175
2016-02-12T08:15:38.532Z,180
2016-02-12T08:16:38.519Z,185
2016-02-12T08:17:38.459Z,190
2016-02-12T08:18:38.493Z,195
2016-02-12T08:19:38.418Z,200
2016-02-12T08:20:38.389Z,205
2016-02-12T08:21:38.362Z,210
2016-02-12T08:22:38.349Z,220
2016-02-12T08:23:38.308Z,225
2016-02-12T08:24:38.280Z,240
2016-02-12T08:25:38.267Z,255
2016-02-12T08:26:38.223Z,265
2016-02-12T08:27:38.240Z,280
2016-02-12T08:28:38.191Z,290
2016-02-12T08:29:38.167Z,305
2016-02-12T08:30:38.008Z,325
2016-02-12T08:31:38.090Z,340
2016-02-12T08:32:38.078Z,355
2016-02-12T08:33:38.033Z,360
2016-02-12T08:34:38.037Z,370
2016-02-12T08:35:38.007Z,375
2016-02-12T08:36:37.839Z,370
2016-02-12T08:37:37.935Z,365
2016-02-12T08:38:37.922Z,355
2016-02-12T08:39:37.893Z,345
2016-02-12T08:40:37.912Z,335
2016-02-12T08:41:37.825Z,325
2016-02-12T08:42:37.813Z,315
2016-02-12T08:43:37.784Z,310
2016-02-12T08:44:37.804Z,305
2016-02-12T08:45:37.729Z,300
2016-02-12T08:46:37.747Z,295
2016-02-12T08:47:37.687Z,290
2016-02-12T08:48:37.660Z,280
2016-02-12T08:49:37.632Z,275
2016-02-12T08:50:37.604Z,270
2016-02-12T08:51:37.575Z,270
2016-02-12T08:52:37.562Z,270
2016-02-12T08:53:37.534Z,275
2016-02-12T08:54:37.552Z,265
2016-02-12T08:55:37.492Z,270
2016-02-12T08:56:37.448Z,275
2016-02-12T08:57:37.419Z,280
2016-02-12T08:58:37.392Z,285
2016-02-12T08:59:37.363Z,290
2016-02-12T09:00:37.334Z,300
2016-02-12T09:01:37.322Z,305
2016-02-12T09:02:37.293Z,315
2016-02-12T09:03:37.264Z,320
2016-02-12T09:04:37.080Z,310
2016-02-12T09:05:37.212Z,300
2016-02-12T09:06:37.184Z,290
2016-02-12T09:07:37.155Z,290
2016-02-12T09:08:37.158Z,290
2016-02-12T09:09:37.098Z,290
2016-02-12T09:10:37.085Z,290
2016-02-12T09:11:37.057Z,285
2016-02-12T09:12:37.047Z,285
2016-02-12T09:13:36.986Z,285
2016-02-12T09:14:37.021Z,285
2016-02-12T09:15:36.946Z,280
2016-02-12T09:16:36.903Z,275
2016-02-12T09:17:36.889Z,275
2016-02-12T09:18:36.860Z,270
2016-02-12T09:19:36.848Z,270
2016-02-12T09:20:36.820Z,275
2016-02-12T09:21:36.776Z,280
2016-02-12T09:22:36.779Z,285
2016-02-12T09:23:36.734Z,290
2016-02-12T09:24:36.692Z,290
2016-02-12T09:25:36.679Z,290
2016-02-12T09:26:36.666Z,290
2016-02-12T09:27:36.623Z,300
2016-02-12T09:28:36.626Z,295
2016-02-12T09:29:36.578Z,300
2016-02-12T09:30:36.522Z,295
2016-02-12T09:31:36.480Z,295
2016-02-12T09:32:36.658Z,295
2016-02-12T09:33:36.420Z,295
2016-02-12T09:34:36.364Z,295
2016-02-12T09:35:36.379Z,295
2016-02-12T09:36:36.361Z,295
2016-02-12T09:37:36.296Z,300
2016-02-12T09:38:36.247Z,295
2016-02-12T09:39:36.231Z,295
2016-02-12T09:40:36.559Z,300
2016-02-12T09:41:36.155Z,295
2016-02-12T09:42:36.126Z,295
2016-02-12T09:43:36.127Z,295
2016-02-12T09:44:36.082Z,295
2016-02-12T09:45:36.038Z,300
2016-02-12T09:46:36.070Z,300
2016-02-12T09:47:35.978Z,300
2016-02-12T09:48:35.980Z,300
2016-02-12T09:49:35.936Z,305
2016-02-12T09:50:35.907Z,300
2016-02-12T09:51:35.973Z,300
2016-02-12T09:52:35.681Z,300
2016-02-12T09:53:35.840Z,300
2016-02-12T09:54:35.796Z,300
2016-02-12T09:55:35.768Z,305
2016-02-12T09:56:35.740Z,305
2016-02-12T09:57:35.710Z,305
2016-02-12T09:58:35.712Z,305
2016-02-12T09:59:35.653Z,305
2016-02-12T10:00:35.625Z,305
2016-02-12T10:01:35.612Z,305
2016-02-12T10:02:35.584Z,305
2016-02-12T10:03:35.537Z,310
2016-02-12T10:04:35.524Z,310
2016-02-12T10:05:35.497Z,310
2016-02-12T10:06:35.499Z,310
2016-02-12T10:07:35.440Z,315
2016-02-12T10:08:35.880Z,310
2016-02-12T10:09:35.413Z,310
2016-02-12T10:10:39.575Z,310
2016-02-12T10:11:35.375Z,310
2016-02-12T10:12:35.299Z,310
2016-02-12T10:13:35.275Z,315
2016-02-12T10:14:35.247Z,310
2016-02-12T10:15:35.264Z,310
2016-02-12T10:16:35.220Z,310
2016-02-12T10:17:35.177Z,310
2016-02-12T10:18:35.149Z,310
2016-02-12T10:19:35.120Z,310
2016-02-12T10:20:35.092Z,310
2016-02-12T10:21:35.063Z,310
2016-02-12T10:22:35.034Z,310
2016-02-12T10:23:35.131Z,310
2016-02-12T10:24:34.993Z,310
2016-02-12T10:25:34.965Z,310
2016-02-12T10:26:34.936Z,310
2016-02-12T10:27:34.957Z,310
2016-02-12T10:28:34.880Z,310
2016-02-12T10:29:34.852Z,310
2016-02-12T10:30:34.840Z,310
2016-02-12T10:31:34.795Z,310
2016-02-12T10:32:34.766Z,310
2016-02-12T10:33:34.754Z,310
2016-02-12T10:34:34.725Z,310
2016-02-12T10:35:34.696Z,310
2016-02-12T10:36:34.669Z,310
2016-02-12T10:37:34.641Z,310
2016-02-12T10:38:34.613Z,310
2016-02-12T10:39:34.585Z,310
2016-02-12T10:40:34.572Z,310
2016-02-12T10:41:34.528Z,310
2016-02-12T10:42:34.499Z,310
2016-02-12T10:43:34.476Z,310
2016-02-12T10:44:34.447Z,310
2016-02-12T10:45:34.419Z,310
2016-02-12T10:46:34.405Z,310
2016-02-12T10:47:34.399Z,315
2016-02-12T10:48:34.339Z,310
2016-02-12T10:49:34.309Z,310
2016-02-12T10:50:34.282Z,310
2016-02-12T10:51:34.253Z,310
2016-02-12T10:52:34.240Z,310
2016-02-12T10:53:34.212Z,310
2016-02-12T10:54:34.198Z,315
2016-02-12T10:55:34.155Z,310
2016-02-12T10:56:34.126Z,315
2016-02-12T10:57:34.113Z,315
2016-02-12T10:58:34.069Z,315
2016-02-12T10:59:33.900Z,315
2016-02-12T11:00:34.027Z,315
2016-02-12T11:01:33.999Z,315
2016-02-12T11:02:33.970Z,315
2016-02-12T11:03:33.941Z,325
2016-02-12T11:04:33.915Z,330
2016-02-12T11:05:33.901Z,320
2016-02-12T11:06:33.856Z,315
2016-02-12T11:07:33.813Z,315
2016-02-12T11:08:33.815Z,315
2016-02-12T11:09:33.771Z,305
2016-02-12T11:10:33.758Z,310
2016-02-12T11:11:33.745Z,310
2016-02-12T11:12:33.747Z,310
2016-02-12T11:13:33.690Z,310
2016-02-12T11:14:33.664Z,315
2016-02-12T11:15:33.634Z,315
2016-02-12T11:16:33.607Z,315
2016-02-12T11:17:33.578Z,315
2016-02-12T11:18:33.550Z,315
2016-02-12T11:19:33.520Z,315
2016-02-12T11:20:33.477Z,315
2016-02-12T11:21:33.464Z,315
2016-02-12T11:22:33.452Z,315
2016-02-12T11:23:33.424Z,315
2016-02-12T11:24:33.379Z,315
2016-02-12T11:25:33.351Z,315
2016-02-12T11:26:33.338Z,315
2016-02-12T11:27:33.309Z,315
2016-02-12T11:28:33.281Z,320
2016-02-12T11:29:38.225Z,320
2016-02-12T11:30:33.494Z,325
2016-02-12T11:31:33.200Z,355
2016-02-12T11:32:33.172Z,360
2016-02-12T11:33:33.142Z,335
2016-02-12T11:34:32.973Z,345
2016-02-12T11:35:33.117Z,330
2016-02-12T11:36:33.088Z,325
2016-02-12T11:37:33.044Z,325
2016-02-12T11:38:33.016Z,325
2016-02-12T11:39:32.989Z,320
2016-02-12T11:40:32.961Z,320
2016-02-12T11:41:32.948Z,315
2016-02-12T11:42:32.936Z,315
2016-02-12T11:43:32.891Z,315
2016-02-12T11:44:32.867Z,315
2016-02-12T11:45:32.838Z,315
2016-02-12T11:46:32.810Z,315
2016-02-12T11:47:32.782Z,315
2016-02-12T11:48:32.769Z,315
2016-02-12T11:49:32.771Z,315
2016-02-12T11:50:32.713Z,315
2016-02-12T11:51:32.669Z,315
2016-02-12T11:52:32.640Z,315
2016-02-12T11:53:32.611Z,315
2016-02-12T11:54:32.599Z,315
2016-02-12T11:55:32.570Z,315
2016-02-12T11:56:32.574Z,315
2016-02-12T11:57:32.515Z,315
2016-02-12T11:58:32.487Z,315
2016-02-12T11:59:32.459Z,315
2016-02-12T12:00:32.431Z,315
2016-02-12T12:01:32.418Z,320
2016-02-12T12:02:32.406Z,325
2016-02-12T12:03:32.377Z,320
2016-02-12T12:04:32.348Z,305
2016-02-12T12:05:32.321Z,325
2016-02-12T12:06:32.276Z,330
2016-02-12T12:07:32.264Z,315
2016-02-12T12:08:32.236Z,310
2016-02-12T12:09:32.208Z,325
2016-02-12T12:10:32.179Z,310
2016-02-12T12:11:32.166Z,335
2016-02-12T12:12:32.121Z,325
2016-02-12T12:13:31.937Z,330
2016-02-12T12:14:32.080Z,300
2016-02-12T12:15:32.052Z,325
2016-02-12T12:16:32.026Z,400
2016-02-12T12:17:31.997Z,480
2016-02-12T12:18:32.000Z,505
2016-02-12T12:19:31.956Z,475
2016-02-12T12:20:31.943Z,465
2016-02-12T12:21:31.883Z,490
2016-02-12T12:22:31.870Z,485
2016-02-12T12:23:31.842Z,460
2016-02-12T12:24:31.828Z,430
2016-02-12T12:25:31.801Z,395
2016-02-12T12:26:31.787Z,415
2016-02-12T12:27:31.775Z,470
2016-02-12T12:28:31.731Z,505
2016-02-12T12:29:31.748Z,505
2016-02-12T12:30:31.655Z,470
2016-02-12T12:31:31.643Z,465
2016-02-12T12:32:31.599Z,475
2016-02-12T12:33:31.585Z,510
2016-02-12T12:34:31.574Z,510
2016-02-12T12:35:31.576Z,550
2016-02-12T12:36:31.516Z,530
2016-02-12T12:37:31.488Z,535
2016-02-12T12:38:31.460Z,570
2016-02-12T12:39:31.446Z,625
2016-02-12T12:40:31.434Z,625
2016-02-12T12:41:31.409Z,630
2016-02-12T12:42:31.381Z,605
2016-02-12T12:43:31.353Z,530
2016-02-12T12:44:31.324Z,465
2016-02-12T12:45:31.296Z,430
2016-02-12T12:46:31.284Z,450
2016-02-12T12:47:31.365Z,450
2016-02-12T12:48:31.257Z,490
2016-02-12T12:49:31.213Z,515
2016-02-12T12:50:31.185Z,565
2016-02-12T12:51:31.157Z,590
2016-02-12T12:52:31.129Z,570
2016-02-12T12:53:31.100Z,540
2016-02-12T12:54:31.088Z,555
2016-02-12T12:55:31.074Z,550
2016-02-12T12:56:31.046Z,545
2016-02-12T12:57:31.018Z,545
2016-02-12T12:58:31.004Z,565
2016-02-12T12:59:30.961Z,540
2016-02-12T13:00:30.950Z,490
2016-02-12T13:01:30.920Z,460
2016-02-12T13:02:30.893Z,450
2016-02-12T13:03:30.895Z,460
2016-02-12T13:04:30.867Z,505
2016-02-12T13:05:30.839Z,520
2016-02-12T13:06:30.809Z,510
2016-02-12T13:07:30.781Z,495
2016-02-12T13:08:30.753Z,485
2016-02-12T13:09:30.741Z,465
2016-02-12T13:10:30.744Z,470
2016-02-12T13:11:30.841Z,460
2016-02-12T13:12:30.688Z,450
2016-02-12T13:13:30.659Z,455
2016-02-12T13:14:30.630Z,450
2016-02-12T13:15:30.603Z,460
2016-02-12T13:16:30.575Z,455
2016-02-12T13:17:30.561Z,480
2016-02-12T13:18:30.548Z,505
2016-02-12T13:19:30.520Z,510
2016-02-12T13:20:30.492Z,510
2016-02-12T13:21:30.448Z,515
2016-02-12T13:22:30.435Z,510
2016-02-12T13:23:30.406Z,505
2016-02-12T13:24:30.378Z,505
2016-02-12T13:25:30.381Z,505
2016-02-12T13:26:30.353Z,515
2016-02-12T13:27:30.323Z,530
2016-02-12T13:28:30.297Z,540
2016-02-12T13:29:33.300Z,540
2016-02-12T13:30:30.255Z,530
2016-02-12T13:31:30.227Z,515
2016-02-12T13:32:30.198Z,520
2016-02-12T13:33:30.201Z,535
2016-02-12T13:34:30.188Z,515
2016-02-12T13:35:30.143Z,470
2016-02-12T13:36:30.130Z,455
2016-02-12T13:37:30.103Z,465
2016-02-12T13:38:30.074Z,420
2016-02-12T13:39:30.061Z,415
2016-02-12T13:40:30.017Z,440
2016-02-12T13:41:30.020Z,475
2016-02-12T13:42:30.008Z,495
2016-02-12T13:43:29.947Z,530
2016-02-12T13:44:29.950Z,540
2016-02-12T13:45:29.922Z,575
2016-02-12T13:46:29.880Z,595
2016-02-12T13:47:29.883Z,610
2016-02-12T13:48:29.839Z,605
2016-02-12T13:49:29.810Z,585
2016-02-12T13:50:29.797Z,600
2016-02-12T13:51:29.768Z,565
2016-02-12T13:52:29.756Z,530
2016-02-12T13:53:29.727Z,480
2016-02-12T13:54:29.716Z,435
2016-02-12T13:55:29.672Z,410
2016-02-12T13:56:29.659Z,385
2016-02-12T13:57:29.661Z,365
2016-02-12T13:58:29.617Z,370
2016-02-12T13:59:29.620Z,375
2016-02-12T14:00:29.576Z,390
2016-02-12T14:01:29.578Z,400
2016-02-12T14:02:29.534Z,415
2016-02-12T14:03:29.523Z,430
2016-02-12T14:04:29.495Z,450
2016-02-12T14:05:29.466Z,475
2016-02-12T14:06:29.437Z,480
2016-02-12T14:07:29.409Z,480
2016-02-12T14:08:29.411Z,480
2016-02-12T14:09:29.367Z,470
2016-02-12T14:10:29.339Z,455
2016-02-12T14:11:29.326Z,440
2016-02-12T14:12:29.297Z,430
2016-02-12T14:13:29.269Z,425
2016-02-12T14:14:29.240Z,430
2016-02-12T14:15:29.228Z,440
2016-02-12T14:16:29.230Z,445